CSN5089 ZBAD-OIIE
Flight info
| Callsign | CSN5089 |
|---|---|
| Flight time | N/A |
| Altitude | 40100 |
| Route | BOTPU5L BOTPU W47 VIGEK W96 UPSUR W69 DKO V162 DAMRO W272 YBL W199 ALGOT V67 JSG W619 BILDA W112 TUSLI W187 SADAN W186 KAMUD/K0898F401 L141 TISIB L143 POGON/N0486F401 B114 RIKOP L720 BRD B451 RAPKI A647 MUXOR |
| Aircraft | A359/H-SDE2E3GHIJ3J4J5LM1ORWXY/LB1D1 |
Departure
| Time | 2026-04-21 13:19 |
|---|---|
| Airport | Beijing Daxing International Airport (ZBAD) |
Arrival
| Time | N/A |
|---|---|
| Airport | Imam Khomeini International Airport (OIIE) |
| Time | Latitude | Longitude | Altitude | Speed | Heading |
|---|---|---|---|---|---|
| 2026-04-21 13:04 | 39.51071 | 116.40643 | 91 ft | 0 kts | 23° |
| 2026-04-21 13:10 | 39.51065 | 116.40640 | 91 ft | 4 kts | 23° |
| 2026-04-21 13:10 | 39.51040 | 116.40626 | 93 ft | 4 kts | 23° |
| 2026-04-21 13:10 | 39.51015 | 116.40612 | 91 ft | 4 kts | 23° |
| 2026-04-21 13:11 | 39.50991 | 116.40598 | 94 ft | 3 kts | 23° |
| 2026-04-21 13:11 | 39.50988 | 116.40597 | 92 ft | 0 kts | 23° |
| 2026-04-21 13:13 | 39.50989 | 116.40596 | 94 ft | 1 kts | 20° |
| 2026-04-21 13:14 | 39.50997 | 116.40589 | 92 ft | 2 kts | 325° |
| 2026-04-21 13:14 | 39.50995 | 116.40561 | 92 ft | 4 kts | 251° |
| 2026-04-21 13:14 | 39.50949 | 116.40424 | 94 ft | 30 kts | 255° |
| 2026-04-21 13:14 | 39.50923 | 116.40138 | 95 ft | 32 kts | 266° |
| 2026-04-21 13:15 | 39.50941 | 116.39981 | 96 ft | 8 kts | 327° |
| 2026-04-21 13:15 | 39.51007 | 116.39961 | 98 ft | 16 kts | 352° |
| 2026-04-21 13:15 | 39.51187 | 116.39933 | 96 ft | 36 kts | 353° |
| 2026-04-21 13:15 | 39.51479 | 116.39889 | 98 ft | 43 kts | 354° |
| 2026-04-21 13:16 | 39.51693 | 116.39853 | 98 ft | 27 kts | 351° |
| 2026-04-21 13:16 | 39.51794 | 116.39782 | 101 ft | 9 kts | 278° |
| 2026-04-21 13:16 | 39.51787 | 116.39703 | 105 ft | 11 kts | 262° |
| 2026-04-21 13:16 | 39.51772 | 116.39555 | 107 ft | 23 kts | 262° |
| 2026-04-21 13:17 | 39.51751 | 116.39312 | 94 ft | 29 kts | 262° |
| 2026-04-21 13:17 | 39.51723 | 116.39049 | 95 ft | 29 kts | 262° |
| 2026-04-21 13:17 | 39.51699 | 116.38810 | 102 ft | 17 kts | 262° |
| 2026-04-21 13:17 | 39.51641 | 116.38749 | 103 ft | 10 kts | 186° |
| 2026-04-21 13:18 | 39.51583 | 116.38757 | 100 ft | 12 kts | 176° |
| 2026-04-21 13:18 | 39.51295 | 116.38801 | 101 ft | 73 kts | 173° |
| 2026-04-21 13:18 | 39.50600 | 116.38909 | 102 ft | 126 kts | 172° |
| 2026-04-21 13:18 | 39.49578 | 116.39081 | 160 ft | 167 kts | 175° |
| 2026-04-21 13:19 | 39.48382 | 116.39254 | 687 ft | 169 kts | 177° |
| 2026-04-21 13:19 | 39.47260 | 116.39435 | 1636 ft | 160 kts | 181° |
| 2026-04-21 13:19 | 39.46091 | 116.39612 | 1988 ft | 179 kts | 182° |
| 2026-04-21 13:19 | 39.44789 | 116.39787 | 2115 ft | 203 kts | 181° |
| 2026-04-21 13:20 | 39.43284 | 116.39993 | 2329 ft | 225 kts | 180° |
| 2026-04-21 13:20 | 39.41661 | 116.40228 | 2615 ft | 242 kts | 179° |
| 2026-04-21 13:20 | 39.39847 | 116.40509 | 3162 ft | 251 kts | 178° |
| 2026-04-21 13:20 | 39.38080 | 116.40783 | 3659 ft | 258 kts | 177° |
| 2026-04-21 13:21 | 39.36287 | 116.41023 | 4238 ft | 260 kts | 181° |
| 2026-04-21 13:21 | 39.35703 | 116.41013 | 4477 ft | 259 kts | 187° |
| 2026-04-21 13:21 | 39.32064 | 116.37677 | 5825 ft | 265 kts | 241° |
| 2026-04-21 13:22 | 39.31162 | 116.35531 | 6317 ft | 272 kts | 243° |
| 2026-04-21 13:22 | 39.30262 | 116.33357 | 6807 ft | 277 kts | 243° |
| 2026-04-21 13:22 | 39.29391 | 116.31269 | 7315 ft | 280 kts | 244° |
| 2026-04-21 13:22 | 39.28489 | 116.29106 | 7737 ft | 283 kts | 244° |
| 2026-04-21 13:23 | 39.27545 | 116.26861 | 7899 ft | 285 kts | 244° |
| 2026-04-21 13:23 | 39.26588 | 116.24605 | 8093 ft | 288 kts | 243° |
| 2026-04-21 13:23 | 39.25608 | 116.22334 | 8624 ft | 292 kts | 243° |
| 2026-04-21 13:23 | 39.24625 | 116.20029 | 9224 ft | 294 kts | 243° |
| 2026-04-21 13:24 | 39.23640 | 116.17741 | 9800 ft | 297 kts | 243° |
| 2026-04-21 13:24 | 39.22625 | 116.15377 | 10251 ft | 305 kts | 244° |
| 2026-04-21 13:24 | 39.21581 | 116.12930 | 10487 ft | 319 kts | 244° |
| 2026-04-21 13:24 | 39.20486 | 116.10365 | 10708 ft | 333 kts | 243° |
| 2026-04-21 13:25 | 39.19345 | 116.07697 | 10913 ft | 347 kts | 243° |
| 2026-04-21 13:25 | 39.18162 | 116.04925 | 11138 ft | 359 kts | 244° |
| 2026-04-21 13:25 | 39.17786 | 116.03956 | 11203 ft | 362 kts | 248° |
| 2026-04-21 13:25 | 39.17185 | 115.98618 | 11577 ft | 370 kts | 283° |
| 2026-04-21 13:26 | 39.18105 | 115.95564 | 11978 ft | 368 kts | 304° |
| 2026-04-21 13:26 | 39.19848 | 115.93168 | 12402 ft | 366 kts | 326° |
| 2026-04-21 13:26 | 39.22143 | 115.91789 | 12834 ft | 367 kts | 347° |
| 2026-04-21 13:26 | 39.24682 | 115.91603 | 13263 ft | 369 kts | 7° |
| 2026-04-21 13:27 | 39.27204 | 115.92306 | 13698 ft | 372 kts | 14° |
| 2026-04-21 13:27 | 39.29739 | 115.93022 | 14064 ft | 375 kts | 5° |
| 2026-04-21 13:27 | 39.32339 | 115.92810 | 14437 ft | 376 kts | 348° |
| 2026-04-21 13:27 | 39.34882 | 115.91986 | 14849 ft | 378 kts | 344° |
| 2026-04-21 13:28 | 39.37430 | 115.91062 | 15252 ft | 381 kts | 344° |
| 2026-04-21 13:28 | 39.39985 | 115.90133 | 15640 ft | 383 kts | 343° |
| 2026-04-21 13:28 | 39.42565 | 115.89202 | 16035 ft | 386 kts | 343° |
| 2026-04-21 13:28 | 39.45168 | 115.88268 | 16425 ft | 388 kts | 343° |
| 2026-04-21 13:29 | 39.47768 | 115.87339 | 16800 ft | 391 kts | 343° |
| 2026-04-21 13:29 | 39.50397 | 115.86400 | 17196 ft | 394 kts | 343° |
| 2026-04-21 13:29 | 39.53072 | 115.85446 | 17576 ft | 397 kts | 343° |
| 2026-04-21 13:29 | 39.55738 | 115.84494 | 17947 ft | 399 kts | 343° |
| 2026-04-21 13:30 | 39.58433 | 115.83533 | 18310 ft | 402 kts | 342° |
| 2026-04-21 13:30 | 39.61137 | 115.82567 | 18627 ft | 404 kts | 342° |
| 2026-04-21 13:30 | 39.63856 | 115.81595 | 18933 ft | 407 kts | 342° |
| 2026-04-21 13:30 | 39.66592 | 115.80616 | 19265 ft | 409 kts | 342° |
| 2026-04-21 13:31 | 39.69344 | 115.79631 | 19595 ft | 410 kts | 342° |
| 2026-04-21 13:31 | 39.72102 | 115.78641 | 19922 ft | 412 kts | 342° |
| 2026-04-21 13:31 | 39.74844 | 115.77657 | 20262 ft | 414 kts | 342° |
| 2026-04-21 13:31 | 39.77633 | 115.76656 | 20594 ft | 416 kts | 341° |
| 2026-04-21 13:32 | 39.80354 | 115.75440 | 20890 ft | 414 kts | 332° |
| 2026-04-21 13:32 | 39.82547 | 115.73684 | 21150 ft | 411 kts | 318° |
| 2026-04-21 13:32 | 39.84525 | 115.71021 | 21503 ft | 409 kts | 307° |
| 2026-04-21 13:32 | 39.86291 | 115.68108 | 21838 ft | 410 kts | 306° |
| 2026-04-21 13:33 | 39.88035 | 115.65151 | 22111 ft | 412 kts | 306° |
| 2026-04-21 13:33 | 39.93095 | 115.56631 | 23024 ft | 417 kts | 306° |
| 2026-04-21 13:34 | 39.97904 | 115.46777 | 23842 ft | 418 kts | 289° |
| 2026-04-21 13:35 | 39.98823 | 115.41922 | 24217 ft | 417 kts | 277° |
| 2026-04-21 13:35 | 39.99302 | 115.35773 | 24680 ft | 417 kts | 273° |
| 2026-04-21 13:35 | 39.99479 | 115.32002 | 24922 ft | 418 kts | 272° |
| 2026-04-21 13:35 | 39.99632 | 115.28201 | 25184 ft | 417 kts | 272° |
| 2026-04-21 13:36 | 39.99784 | 115.24419 | 25339 ft | 419 kts | 272° |
| 2026-04-21 13:36 | 39.99947 | 115.20632 | 25566 ft | 421 kts | 273° |
| 2026-04-21 13:36 | 40.00125 | 115.16806 | 25892 ft | 420 kts | 273° |
| 2026-04-21 13:36 | 40.00310 | 115.12999 | 26181 ft | 421 kts | 273° |
| 2026-04-21 13:37 | 40.00498 | 115.09197 | 26465 ft | 421 kts | 273° |
| 2026-04-21 13:37 | 40.00689 | 115.05371 | 26747 ft | 422 kts | 273° |
| 2026-04-21 13:37 | 40.00879 | 115.01545 | 27041 ft | 423 kts | 273° |
| 2026-04-21 13:38 | 40.01257 | 114.93869 | 27612 ft | 425 kts | 273° |
| 2026-04-21 13:38 | 40.01443 | 114.90028 | 27889 ft | 426 kts | 273° |
| 2026-04-21 13:38 | 40.01629 | 114.86166 | 28183 ft | 427 kts | 273° |
| 2026-04-21 13:38 | 40.01812 | 114.82302 | 28462 ft | 428 kts | 272° |
| 2026-04-21 13:39 | 40.01996 | 114.78412 | 28726 ft | 429 kts | 272° |
| 2026-04-21 13:39 | 40.02179 | 114.74518 | 28983 ft | 431 kts | 272° |
| 2026-04-21 13:39 | 40.02361 | 114.70623 | 29229 ft | 432 kts | 272° |
| 2026-04-21 13:39 | 40.02543 | 114.66695 | 29483 ft | 433 kts | 272° |
| 2026-04-21 13:40 | 40.02723 | 114.62770 | 29744 ft | 434 kts | 272° |
| 2026-04-21 13:40 | 40.02903 | 114.58834 | 29981 ft | 436 kts | 272° |
| 2026-04-21 13:40 | 40.03079 | 114.54935 | 30227 ft | 436 kts | 272° |
| 2026-04-21 13:40 | 40.03259 | 114.50927 | 30460 ft | 437 kts | 272° |
| 2026-04-21 13:41 | 40.03436 | 114.46954 | 30686 ft | 438 kts | 272° |
| 2026-04-21 13:41 | 40.03612 | 114.42982 | 30936 ft | 438 kts | 272° |
| 2026-04-21 13:41 | 40.03783 | 114.39071 | 31239 ft | 437 kts | 272° |
| 2026-04-21 13:41 | 40.03954 | 114.35130 | 31620 ft | 435 kts | 271° |
| 2026-04-21 13:42 | 40.04125 | 114.31190 | 31999 ft | 433 kts | 271° |
| 2026-04-21 13:42 | 40.04294 | 114.27273 | 32360 ft | 431 kts | 271° |
| 2026-04-21 13:42 | 40.04463 | 114.23324 | 32709 ft | 429 kts | 271° |
| 2026-04-21 13:42 | 40.04688 | 114.19432 | 33039 ft | 429 kts | 274° |
| 2026-04-21 13:43 | 40.05210 | 114.15587 | 33374 ft | 431 kts | 280° |
| 2026-04-21 13:43 | 40.06105 | 114.11845 | 33693 ft | 434 kts | 286° |
| 2026-04-21 13:43 | 40.07365 | 114.08240 | 33989 ft | 437 kts | 291° |
| 2026-04-21 13:43 | 40.08764 | 114.04719 | 34275 ft | 437 kts | 292° |
| 2026-04-21 13:44 | 40.10216 | 114.01239 | 34542 ft | 437 kts | 293° |
| 2026-04-21 13:44 | 40.11694 | 113.97764 | 34809 ft | 436 kts | 293° |
| 2026-04-21 13:44 | 40.13135 | 113.94334 | 35077 ft | 435 kts | 292° |
| 2026-04-21 13:44 | 40.14568 | 113.90857 | 35343 ft | 434 kts | 292° |
| 2026-04-21 13:45 | 40.15986 | 113.87376 | 35625 ft | 432 kts | 292° |
| 2026-04-21 13:45 | 40.17390 | 113.83903 | 35897 ft | 432 kts | 292° |
| 2026-04-21 13:45 | 40.18788 | 113.80435 | 36171 ft | 431 kts | 292° |
| 2026-04-21 13:45 | 40.20185 | 113.76964 | 36441 ft | 430 kts | 292° |
| 2026-04-21 13:46 | 40.21575 | 113.73511 | 36711 ft | 429 kts | 292° |
| 2026-04-21 13:46 | 40.22965 | 113.70056 | 36972 ft | 428 kts | 292° |
| 2026-04-21 13:46 | 40.24351 | 113.66611 | 37215 ft | 427 kts | 292° |
| 2026-04-21 13:46 | 40.25739 | 113.63165 | 37451 ft | 427 kts | 292° |
| 2026-04-21 13:47 | 40.27134 | 113.59732 | 37702 ft | 426 kts | 293° |
| 2026-04-21 13:47 | 40.28531 | 113.56309 | 37925 ft | 425 kts | 293° |
| 2026-04-21 13:47 | 40.29459 | 113.54035 | 38032 ft | 426 kts | 293° |
| 2026-04-21 13:47 | 40.30859 | 113.50600 | 38055 ft | 429 kts | 293° |
| 2026-04-21 13:48 | 40.33663 | 113.43688 | 38059 ft | 429 kts | 292° |
| 2026-04-21 13:48 | 40.36467 | 113.36769 | 38057 ft | 430 kts | 293° |
| 2026-04-21 13:49 | 40.39276 | 113.29843 | 38059 ft | 430 kts | 293° |
| 2026-04-21 13:49 | 40.42080 | 113.22903 | 38060 ft | 430 kts | 293° |
| 2026-04-21 13:50 | 40.44879 | 113.15950 | 38064 ft | 431 kts | 293° |
| 2026-04-21 13:50 | 40.47676 | 113.08986 | 38067 ft | 431 kts | 293° |
| 2026-04-21 13:51 | 40.50463 | 113.02008 | 38074 ft | 431 kts | 292° |
| 2026-04-21 13:51 | 40.53218 | 112.95052 | 38072 ft | 432 kts | 292° |
| 2026-04-21 13:52 | 40.55992 | 112.88032 | 38076 ft | 432 kts | 292° |
| 2026-04-21 13:52 | 40.58484 | 112.80883 | 38080 ft | 428 kts | 285° |
| 2026-04-21 13:53 | 40.59727 | 112.73288 | 38082 ft | 424 kts | 276° |
| 2026-04-21 13:53 | 40.60323 | 112.65573 | 38083 ft | 423 kts | 272° |
| 2026-04-21 13:54 | 40.60659 | 112.57912 | 38090 ft | 423 kts | 272° |
| 2026-04-21 13:54 | 40.61014 | 112.50137 | 38093 ft | 424 kts | 272° |
| 2026-04-21 13:55 | 40.61330 | 112.42400 | 38099 ft | 423 kts | 271° |
| 2026-04-21 13:55 | 40.61477 | 112.34651 | 38093 ft | 423 kts | 270° |
| 2026-04-21 13:56 | 40.61614 | 112.26903 | 38104 ft | 423 kts | 270° |
| 2026-04-21 13:56 | 40.61777 | 112.19152 | 38101 ft | 423 kts | 271° |
| 2026-04-21 13:57 | 40.61953 | 112.11417 | 38100 ft | 423 kts | 271° |
| 2026-04-21 13:57 | 40.62123 | 112.03734 | 38101 ft | 422 kts | 271° |
| 2026-04-21 13:58 | 40.62300 | 111.95991 | 38098 ft | 422 kts | 271° |
| 2026-04-21 13:58 | 40.62454 | 111.88264 | 38099 ft | 422 kts | 271° |
| 2026-04-21 13:59 | 40.62589 | 111.80538 | 38099 ft | 422 kts | 271° |
| 2026-04-21 13:59 | 40.62731 | 111.72819 | 38098 ft | 421 kts | 271° |
| 2026-04-21 14:00 | 40.62872 | 111.65104 | 38092 ft | 421 kts | 271° |
| 2026-04-21 14:00 | 40.63009 | 111.57401 | 38099 ft | 420 kts | 271° |
| 2026-04-21 14:01 | 40.63138 | 111.49725 | 38103 ft | 420 kts | 271° |
| 2026-04-21 14:01 | 40.63264 | 111.41994 | 38096 ft | 422 kts | 271° |
| 2026-04-21 14:02 | 40.63385 | 111.34201 | 38097 ft | 429 kts | 271° |
| 2026-04-21 14:03 | 40.63560 | 111.22349 | 38095 ft | 433 kts | 271° |
| 2026-04-21 14:03 | 40.63674 | 111.14394 | 38093 ft | 433 kts | 271° |
| 2026-04-21 14:04 | 40.63778 | 111.06520 | 38094 ft | 433 kts | 270° |
| 2026-04-21 14:04 | 40.63875 | 110.98573 | 38095 ft | 433 kts | 270° |
| 2026-04-21 14:05 | 40.63967 | 110.90650 | 38096 ft | 433 kts | 270° |
| 2026-04-21 14:05 | 40.64055 | 110.82729 | 38100 ft | 432 kts | 270° |
| 2026-04-21 14:06 | 40.64136 | 110.74810 | 38099 ft | 432 kts | 270° |
| 2026-04-21 14:06 | 40.64210 | 110.66888 | 38098 ft | 432 kts | 270° |
| 2026-04-21 14:07 | 40.64287 | 110.58964 | 38100 ft | 432 kts | 270° |
| 2026-04-21 14:07 | 40.64355 | 110.51055 | 38102 ft | 432 kts | 270° |
| 2026-04-21 14:08 | 40.64419 | 110.43139 | 38100 ft | 432 kts | 270° |
| 2026-04-21 14:08 | 40.64476 | 110.35280 | 38100 ft | 432 kts | 270° |
| 2026-04-21 14:09 | 40.64527 | 110.27384 | 38092 ft | 431 kts | 270° |
| 2026-04-21 14:09 | 40.64573 | 110.19502 | 38095 ft | 430 kts | 270° |
| 2026-04-21 14:10 | 40.64614 | 110.11617 | 38098 ft | 430 kts | 270° |
| 2026-04-21 14:10 | 40.64651 | 110.03717 | 38093 ft | 430 kts | 270° |
| 2026-04-21 14:11 | 40.64394 | 109.95849 | 38095 ft | 430 kts | 264° |
| 2026-04-21 14:11 | 40.63684 | 109.88020 | 38093 ft | 430 kts | 263° |
| 2026-04-21 14:12 | 40.62896 | 109.80264 | 38090 ft | 430 kts | 263° |
| 2026-04-21 14:12 | 40.62094 | 109.72454 | 38092 ft | 430 kts | 263° |
| 2026-04-21 14:13 | 40.61299 | 109.64646 | 38089 ft | 429 kts | 263° |
| 2026-04-21 14:13 | 40.60507 | 109.56857 | 38092 ft | 429 kts | 263° |
| 2026-04-21 14:14 | 40.59714 | 109.49115 | 38090 ft | 429 kts | 263° |
| 2026-04-21 14:14 | 40.58912 | 109.41330 | 38088 ft | 429 kts | 263° |
| 2026-04-21 14:15 | 40.58104 | 109.33551 | 38085 ft | 429 kts | 263° |
| 2026-04-21 14:15 | 40.57291 | 109.25768 | 38084 ft | 429 kts | 262° |
| 2026-04-21 14:16 | 40.56472 | 109.17983 | 38084 ft | 429 kts | 262° |
| 2026-04-21 14:16 | 40.55649 | 109.10210 | 38080 ft | 429 kts | 262° |
| 2026-04-21 14:17 | 40.54819 | 109.02427 | 38079 ft | 429 kts | 262° |
| 2026-04-21 14:17 | 40.53991 | 108.94708 | 38079 ft | 429 kts | 262° |
| 2026-04-21 14:18 | 40.53153 | 108.86946 | 38075 ft | 429 kts | 262° |
| 2026-04-21 14:18 | 40.52309 | 108.79181 | 38075 ft | 429 kts | 262° |
| 2026-04-21 14:19 | 40.51461 | 108.71431 | 38072 ft | 429 kts | 262° |
| 2026-04-21 14:19 | 40.50606 | 108.63666 | 38071 ft | 429 kts | 262° |
| 2026-04-21 14:20 | 40.49746 | 108.55903 | 38073 ft | 428 kts | 262° |
| 2026-04-21 14:20 | 40.48888 | 108.48208 | 38071 ft | 428 kts | 262° |
| 2026-04-21 14:21 | 40.48019 | 108.40462 | 38075 ft | 428 kts | 262° |
| 2026-04-21 14:21 | 40.47146 | 108.32719 | 38070 ft | 428 kts | 262° |
| 2026-04-21 14:22 | 40.46268 | 108.24987 | 38073 ft | 428 kts | 262° |
| 2026-04-21 14:22 | 40.45383 | 108.17241 | 38074 ft | 428 kts | 262° |
| 2026-04-21 14:23 | 40.44493 | 108.09498 | 38073 ft | 428 kts | 261° |
| 2026-04-21 14:23 | 40.43598 | 108.01761 | 38079 ft | 428 kts | 261° |
| 2026-04-21 14:24 | 40.42707 | 107.94081 | 38076 ft | 428 kts | 261° |
| 2026-04-21 14:24 | 40.41800 | 107.86346 | 38081 ft | 428 kts | 261° |
| 2026-04-21 14:25 | 40.40883 | 107.78605 | 38082 ft | 428 kts | 261° |
| 2026-04-21 14:25 | 40.39967 | 107.70903 | 38082 ft | 428 kts | 261° |
| 2026-04-21 14:26 | 40.39045 | 107.63186 | 38091 ft | 428 kts | 261° |
| 2026-04-21 14:26 | 40.38116 | 107.55451 | 38091 ft | 428 kts | 261° |
| 2026-04-21 14:27 | 40.37183 | 107.47731 | 38092 ft | 428 kts | 261° |
| 2026-04-21 14:27 | 40.36250 | 107.40057 | 38098 ft | 428 kts | 261° |
| 2026-04-21 14:28 | 40.35308 | 107.32345 | 38099 ft | 428 kts | 261° |
| 2026-04-21 14:28 | 40.34520 | 107.25936 | 38102 ft | 428 kts | 261° |
| 2026-04-21 14:29 | 40.33568 | 107.18221 | 38102 ft | 428 kts | 261° |
| 2026-04-21 14:29 | 40.32454 | 107.09257 | 38105 ft | 429 kts | 261° |
| 2026-04-21 14:30 | 40.31646 | 107.02789 | 38107 ft | 429 kts | 261° |
| 2026-04-21 14:30 | 40.30318 | 106.93876 | 38101 ft | 429 kts | 256° |
| 2026-04-21 14:31 | 40.29068 | 106.87523 | 38100 ft | 430 kts | 256° |
| 2026-04-21 14:31 | 40.27521 | 106.80017 | 38101 ft | 430 kts | 255° |
| 2026-04-21 14:32 | 40.25954 | 106.72463 | 38100 ft | 430 kts | 255° |
| 2026-04-21 14:32 | 40.24388 | 106.64900 | 38098 ft | 430 kts | 255° |
| 2026-04-21 14:33 | 40.22824 | 106.57344 | 38100 ft | 430 kts | 255° |
| 2026-04-21 14:33 | 40.21256 | 106.49790 | 38104 ft | 430 kts | 255° |
| 2026-04-21 14:34 | 40.19686 | 106.42253 | 38101 ft | 430 kts | 255° |
| 2026-04-21 14:34 | 40.18101 | 106.34678 | 38107 ft | 431 kts | 255° |
| 2026-04-21 14:35 | 40.16512 | 106.27110 | 38108 ft | 431 kts | 255° |
| 2026-04-21 14:35 | 40.14918 | 106.19542 | 38111 ft | 431 kts | 255° |
| 2026-04-21 14:36 | 40.13328 | 106.12022 | 38116 ft | 432 kts | 255° |
| 2026-04-21 14:36 | 40.11724 | 106.04463 | 38115 ft | 432 kts | 255° |
| 2026-04-21 14:37 | 40.10112 | 105.96892 | 38117 ft | 432 kts | 255° |
| 2026-04-21 14:37 | 40.08498 | 105.89339 | 38117 ft | 432 kts | 255° |
| 2026-04-21 14:38 | 40.06876 | 105.81777 | 38115 ft | 432 kts | 255° |
| 2026-04-21 14:38 | 40.05253 | 105.74234 | 38117 ft | 432 kts | 255° |
| 2026-04-21 14:39 | 40.03624 | 105.66690 | 38114 ft | 432 kts | 255° |
| 2026-04-21 14:39 | 40.01998 | 105.59184 | 38121 ft | 432 kts | 255° |
| 2026-04-21 14:40 | 40.00358 | 105.51643 | 38116 ft | 432 kts | 255° |
| 2026-04-21 14:40 | 39.98761 | 105.44074 | 38120 ft | 433 kts | 256° |
| 2026-04-21 14:41 | 39.97266 | 105.36455 | 38123 ft | 433 kts | 256° |
| 2026-04-21 14:41 | 39.95773 | 105.28839 | 38117 ft | 433 kts | 256° |
| 2026-04-21 14:42 | 39.94259 | 105.21242 | 38119 ft | 433 kts | 256° |
| 2026-04-21 14:42 | 39.92729 | 105.13645 | 38126 ft | 433 kts | 256° |
| 2026-04-21 14:43 | 39.91204 | 105.06107 | 38119 ft | 433 kts | 256° |
| 2026-04-21 14:43 | 39.89662 | 104.98516 | 38122 ft | 433 kts | 256° |
| 2026-04-21 14:44 | 39.88117 | 104.90932 | 38117 ft | 433 kts | 256° |
| 2026-04-21 14:44 | 39.86568 | 104.83354 | 38123 ft | 433 kts | 256° |
| 2026-04-21 14:45 | 39.85014 | 104.75782 | 38114 ft | 433 kts | 256° |
| 2026-04-21 14:45 | 39.83454 | 104.68204 | 38116 ft | 433 kts | 256° |
| 2026-04-21 14:46 | 39.81899 | 104.60681 | 38113 ft | 433 kts | 256° |
| 2026-04-21 14:46 | 39.80331 | 104.53116 | 38114 ft | 433 kts | 256° |
| 2026-04-21 14:47 | 39.78755 | 104.45544 | 38114 ft | 433 kts | 256° |
| 2026-04-21 14:47 | 39.77176 | 104.37986 | 38113 ft | 433 kts | 256° |
| 2026-04-21 14:48 | 39.75604 | 104.30486 | 38116 ft | 432 kts | 256° |
| 2026-04-21 14:48 | 39.74017 | 104.22945 | 38116 ft | 432 kts | 256° |
| 2026-04-21 14:49 | 39.72426 | 104.15408 | 38117 ft | 432 kts | 256° |
| 2026-04-21 14:49 | 39.70833 | 104.07887 | 38120 ft | 431 kts | 256° |
| 2026-04-21 14:50 | 39.69509 | 104.01655 | 38120 ft | 431 kts | 256° |
| 2026-04-21 14:50 | 39.67639 | 103.92885 | 38121 ft | 431 kts | 256° |
| 2026-04-21 14:51 | 39.66034 | 103.85389 | 38124 ft | 431 kts | 255° |
| 2026-04-21 14:51 | 39.64437 | 103.77956 | 38117 ft | 430 kts | 255° |
| 2026-04-21 14:52 | 39.62823 | 103.70467 | 38120 ft | 430 kts | 255° |
| 2026-04-21 14:52 | 39.61206 | 103.62995 | 38118 ft | 429 kts | 255° |
| 2026-04-21 14:53 | 39.59598 | 103.55590 | 38116 ft | 429 kts | 255° |
| 2026-04-21 14:53 | 39.57976 | 103.48141 | 38116 ft | 429 kts | 255° |
| 2026-04-21 14:54 | 39.56351 | 103.40704 | 38115 ft | 429 kts | 255° |
| 2026-04-21 14:54 | 39.54719 | 103.33262 | 38118 ft | 429 kts | 255° |
| 2026-04-21 14:55 | 39.53084 | 103.25835 | 38117 ft | 429 kts | 255° |
| 2026-04-21 14:55 | 39.51443 | 103.18401 | 38119 ft | 429 kts | 255° |
| 2026-04-21 14:56 | 39.49796 | 103.10964 | 38118 ft | 429 kts | 255° |
| 2026-04-21 14:56 | 39.48153 | 103.03571 | 38119 ft | 429 kts | 255° |
| 2026-04-21 14:57 | 39.46493 | 102.96149 | 38118 ft | 429 kts | 254° |
| 2026-04-21 14:57 | 39.44785 | 102.88735 | 38117 ft | 430 kts | 254° |
| 2026-04-21 14:58 | 39.43188 | 102.81286 | 38117 ft | 429 kts | 259° |
| 2026-04-21 14:58 | 39.42759 | 102.73643 | 38116 ft | 431 kts | 271° |
| 2026-04-21 14:59 | 39.43530 | 102.65918 | 38112 ft | 433 kts | 276° |
| 2026-04-21 14:59 | 39.44495 | 102.58210 | 38113 ft | 434 kts | 276° |
| 2026-04-21 15:00 | 39.45423 | 102.50484 | 38114 ft | 434 kts | 276° |
| 2026-04-21 15:00 | 39.46321 | 102.42736 | 38115 ft | 435 kts | 275° |
| 2026-04-21 15:01 | 39.47206 | 102.34974 | 38118 ft | 435 kts | 275° |
| 2026-04-21 15:01 | 39.48080 | 102.27257 | 38117 ft | 436 kts | 275° |
| 2026-04-21 15:02 | 39.48957 | 102.19492 | 38118 ft | 436 kts | 275° |
| 2026-04-21 15:02 | 39.49830 | 102.11718 | 38117 ft | 437 kts | 275° |
| 2026-04-21 15:03 | 39.50698 | 102.03928 | 38119 ft | 437 kts | 275° |
| 2026-04-21 15:03 | 39.51562 | 101.96132 | 38118 ft | 438 kts | 275° |
| 2026-04-21 15:04 | 39.52421 | 101.88327 | 38119 ft | 438 kts | 275° |
| 2026-04-21 15:04 | 39.53279 | 101.80491 | 38120 ft | 439 kts | 275° |
| 2026-04-21 15:05 | 39.54125 | 101.72706 | 38121 ft | 439 kts | 275° |
| 2026-04-21 15:05 | 39.55395 | 101.60931 | 38121 ft | 440 kts | 275° |
| 2026-04-21 15:06 | 39.56240 | 101.53037 | 38125 ft | 441 kts | 275° |
| 2026-04-21 15:06 | 39.57080 | 101.45137 | 38124 ft | 442 kts | 275° |
| 2026-04-21 15:07 | 39.57915 | 101.37234 | 38125 ft | 443 kts | 275° |
| 2026-04-21 15:07 | 39.58742 | 101.29352 | 38126 ft | 444 kts | 275° |
| 2026-04-21 15:08 | 39.59570 | 101.21407 | 38128 ft | 445 kts | 275° |
| 2026-04-21 15:08 | 39.60394 | 101.13448 | 38125 ft | 446 kts | 275° |
| 2026-04-21 15:09 | 39.61213 | 101.05474 | 38126 ft | 447 kts | 275° |
| 2026-04-21 15:09 | 39.62031 | 100.97467 | 38126 ft | 447 kts | 275° |
| 2026-04-21 15:10 | 39.62844 | 100.89451 | 38128 ft | 448 kts | 275° |
| 2026-04-21 15:10 | 39.63648 | 100.81466 | 38125 ft | 449 kts | 275° |
| 2026-04-21 15:11 | 39.64451 | 100.73427 | 38128 ft | 450 kts | 275° |
| 2026-04-21 15:11 | 39.65253 | 100.65351 | 38123 ft | 450 kts | 275° |
| 2026-04-21 15:12 | 39.65913 | 100.58649 | 38125 ft | 451 kts | 275° |
| 2026-04-21 15:12 | 39.66706 | 100.50557 | 38124 ft | 452 kts | 275° |
| 2026-04-21 15:13 | 39.67493 | 100.42469 | 38121 ft | 453 kts | 275° |
| 2026-04-21 15:13 | 39.68277 | 100.34348 | 38122 ft | 453 kts | 275° |
| 2026-04-21 15:14 | 39.69055 | 100.26223 | 38123 ft | 454 kts | 275° |
| 2026-04-21 15:14 | 39.69824 | 100.18135 | 38120 ft | 455 kts | 275° |
| 2026-04-21 15:15 | 39.70594 | 100.09970 | 38121 ft | 455 kts | 275° |
| 2026-04-21 15:15 | 39.71360 | 100.01792 | 38123 ft | 456 kts | 275° |
| 2026-04-21 15:16 | 39.72117 | 99.93646 | 38122 ft | 457 kts | 275° |
| 2026-04-21 15:16 | 39.72872 | 99.85454 | 38117 ft | 457 kts | 275° |
| 2026-04-21 15:17 | 39.73625 | 99.77226 | 38120 ft | 458 kts | 275° |
| 2026-04-21 15:17 | 39.74245 | 99.70396 | 38112 ft | 458 kts | 275° |